sensor_id;sensor_type;location;lat;lon;timestamp;P1;durP1;ratioP1;P2;durP2;ratioP2
7719;SDS011;3902;49.474;8.616;2023-03-05T00:01:40;20.23;;;15.27;;
7719;SDS011;3902;49.474;8.616;2023-03-05T00:04:07;24.57;;;16.63;;
7719;SDS011;3902;49.474;8.616;2023-03-05T00:06:37;22.83;;;15.60;;
7719;SDS011;3902;49.474;8.616;2023-03-05T00:09:03;23.37;;;15.67;;
7719;SDS011;3902;49.474;8.616;2023-03-05T00:11:29;27.17;;;16.00;;
7719;SDS011;3902;49.474;8.616;2023-03-05T00:13:55;23.97;;;16.23;;
7719;SDS011;3902;49.474;8.616;2023-03-05T00:16:21;24.40;;;16.80;;
7719;SDS011;3902;49.474;8.616;2023-03-05T00:18:50;24.20;;;17.43;;
7719;SDS011;3902;49.474;8.616;2023-03-05T00:23:45;24.50;;;16.20;;
7719;SDS011;3902;49.474;8.616;2023-03-05T00:26:10;22.90;;;15.87;;
7719;SDS011;3902;49.474;8.616;2023-03-05T00:28:36;21.57;;;16.17;;
7719;SDS011;3902;49.474;8.616;2023-03-05T00:31:01;26.17;;;15.60;;
7719;SDS011;3902;49.474;8.616;2023-03-05T00:33:27;22.90;;;15.93;;
7719;SDS011;3902;49.474;8.616;2023-03-05T00:35:52;23.80;;;17.53;;
7719;SDS011;3902;49.474;8.616;2023-03-05T00:38:18;25.17;;;16.70;;
7719;SDS011;3902;49.474;8.616;2023-03-05T00:40:44;23.93;;;15.43;;
7719;SDS011;3902;49.474;8.616;2023-03-05T00:43:10;24.33;;;15.90;;
7719;SDS011;3902;49.474;8.616;2023-03-05T00:45:35;24.13;;;16.43;;
7719;SDS011;3902;49.474;8.616;2023-03-05T00:48:01;25.90;;;17.70;;
7719;SDS011;3902;49.474;8.616;2023-03-05T00:50:27;28.70;;;17.83;;
7719;SDS011;3902;49.474;8.616;2023-03-05T00:52:53;24.80;;;17.10;;
7719;SDS011;3902;49.474;8.616;2023-03-05T00:55:19;27.40;;;17.83;;
7719;SDS011;3902;49.474;8.616;2023-03-05T00:57:45;24.83;;;16.50;;
7719;SDS011;3902;49.474;8.616;2023-03-05T01:00:11;24.70;;;16.00;;
7719;SDS011;3902;49.474;8.616;2023-03-05T01:02:37;24.87;;;17.30;;
7719;SDS011;3902;49.474;8.616;2023-03-05T01:05:03;26.20;;;17.00;;
7719;SDS011;3902;49.474;8.616;2023-03-05T01:07:29;24.47;;;16.80;;
7719;SDS011;3902;49.474;8.616;2023-03-05T01:09:54;26.73;;;16.77;;
7719;SDS011;3902;49.474;8.616;2023-03-05T01:12:20;25.43;;;17.30;;
7719;SDS011;3902;49.474;8.616;2023-03-05T01:14:45;29.07;;;18.57;;
7719;SDS011;3902;49.474;8.616;2023-03-05T01:17:11;24.37;;;15.63;;
7719;SDS011;3902;49.474;8.616;2023-03-05T01:19:36;26.70;;;16.77;;
7719;SDS011;3902;49.474;8.616;2023-03-05T01:22:02;24.70;;;16.77;;
7719;SDS011;3902;49.474;8.616;2023-03-05T01:24:29;26.77;;;17.23;;
7719;SDS011;3902;49.474;8.616;2023-03-05T01:26:55;24.50;;;16.50;;
7719;SDS011;3902;49.474;8.616;2023-03-05T01:29:20;28.67;;;17.07;;
7719;SDS011;3902;49.474;8.616;2023-03-05T01:31:46;24.10;;;16.67;;
7719;SDS011;3902;49.474;8.616;2023-03-05T01:34:11;36.53;;;20.60;;
7719;SDS011;3902;49.474;8.616;2023-03-05T01:36:39;27.73;;;18.40;;
7719;SDS011;3902;49.474;8.616;2023-03-05T01:39:05;28.50;;;18.13;;
7719;SDS011;3902;49.474;8.616;2023-03-05T01:41:31;27.90;;;19.03;;
7719;SDS011;3902;49.474;8.616;2023-03-05T01:43:57;28.93;;;18.30;;
7719;SDS011;3902;49.474;8.616;2023-03-05T01:46:36;25.27;;;17.90;;
7719;SDS011;3902;49.474;8.616;2023-03-05T01:49:14;33.33;;;18.57;;
7719;SDS011;3902;49.474;8.616;2023-03-05T01:54:16;28.30;;;18.73;;
7719;SDS011;3902;49.474;8.616;2023-03-05T01:56:45;24.37;;;16.13;;
7719;SDS011;3902;49.474;8.616;2023-03-05T01:59:12;26.80;;;17.70;;
7719;SDS011;3902;49.474;8.616;2023-03-05T02:01:40;28.40;;;18.50;;
7719;SDS011;3902;49.474;8.616;2023-03-05T02:04:09;28.43;;;18.67;;
7719;SDS011;3902;49.474;8.616;2023-03-05T02:06:38;26.30;;;17.10;;
7719;SDS011;3902;49.474;8.616;2023-03-05T02:09:06;24.40;;;16.60;;
7719;SDS011;3902;49.474;8.616;2023-03-05T02:11:32;26.47;;;17.77;;
7719;SDS011;3902;49.474;8.616;2023-03-05T02:13:58;25.97;;;17.30;;
7719;SDS011;3902;49.474;8.616;2023-03-05T02:16:25;28.97;;;17.10;;
7719;SDS011;3902;49.474;8.616;2023-03-05T02:18:59;35.20;;;19.90;;
7719;SDS011;3902;49.474;8.616;2023-03-05T02:21:27;27.90;;;17.87;;
7719;SDS011;3902;49.474;8.616;2023-03-05T02:24:00;27.50;;;18.00;;
7719;SDS011;3902;49.474;8.616;2023-03-05T02:26:25;27.93;;;17.30;;
7719;SDS011;3902;49.474;8.616;2023-03-05T02:28:52;27.20;;;18.13;;
7719;SDS011;3902;49.474;8.616;2023-03-05T02:31:22;26.37;;;18.00;;
7719;SDS011;3902;49.474;8.616;2023-03-05T02:33:49;28.00;;;18.17;;
7719;SDS011;3902;49.474;8.616;2023-03-05T02:36:15;29.67;;;18.93;;
7719;SDS011;3902;49.474;8.616;2023-03-05T02:38:43;32.37;;;19.90;;
7719;SDS011;3902;49.474;8.616;2023-03-05T02:41:09;26.03;;;17.20;;
7719;SDS011;3902;49.474;8.616;2023-03-05T02:43:35;28.50;;;18.47;;
7719;SDS011;3902;49.474;8.616;2023-03-05T02:46:01;28.00;;;18.73;;
7719;SDS011;3902;49.474;8.616;2023-03-05T02:48:26;27.27;;;17.80;;
7719;SDS011;3902;49.474;8.616;2023-03-05T02:50:52;28.93;;;18.20;;
7719;SDS011;3902;49.474;8.616;2023-03-05T02:53:17;25.67;;;18.00;;
7719;SDS011;3902;49.474;8.616;2023-03-05T02:55:45;32.83;;;19.63;;
7719;SDS011;3902;49.474;8.616;2023-03-05T02:58:11;28.40;;;17.90;;
7719;SDS011;3902;49.474;8.616;2023-03-05T03:00:37;30.87;;;19.20;;
7719;SDS011;3902;49.474;8.616;2023-03-05T03:03:02;29.17;;;18.60;;
7719;SDS011;3902;49.474;8.616;2023-03-05T03:05:28;29.00;;;18.60;;
7719;SDS011;3902;49.474;8.616;2023-03-05T03:07:53;27.53;;;18.20;;
7719;SDS011;3902;49.474;8.616;2023-03-05T03:10:19;25.70;;;16.87;;
7719;SDS011;3902;49.474;8.616;2023-03-05T03:12:44;27.97;;;18.57;;
7719;SDS011;3902;49.474;8.616;2023-03-05T03:15:11;27.80;;;17.17;;
7719;SDS011;3902;49.474;8.616;2023-03-05T03:17:38;28.87;;;18.13;;
7719;SDS011;3902;49.474;8.616;2023-03-05T03:20:04;29.40;;;18.93;;
7719;SDS011;3902;49.474;8.616;2023-03-05T03:22:34;24.53;;;17.77;;
7719;SDS011;3902;49.474;8.616;2023-03-05T03:24:59;29.23;;;17.90;;
7719;SDS011;3902;49.474;8.616;2023-03-05T03:27:25;27.93;;;17.50;;
7719;SDS011;3902;49.474;8.616;2023-03-05T03:29:51;28.60;;;19.27;;
7719;SDS011;3902;49.474;8.616;2023-03-05T03:32:16;28.30;;;19.10;;
7719;SDS011;3902;49.474;8.616;2023-03-05T03:34:42;30.97;;;18.40;;
7719;SDS011;3902;49.474;8.616;2023-03-05T03:37:08;27.40;;;18.27;;
7719;SDS011;3902;49.474;8.616;2023-03-05T03:39:34;27.57;;;18.33;;
7719;SDS011;3902;49.474;8.616;2023-03-05T03:42:00;30.10;;;18.33;;
7719;SDS011;3902;49.474;8.616;2023-03-05T03:44:25;26.67;;;18.07;;
7719;SDS011;3902;49.474;8.616;2023-03-05T03:46:51;26.67;;;17.47;;
7719;SDS011;3902;49.474;8.616;2023-03-05T03:49:22;26.67;;;18.40;;
7719;SDS011;3902;49.474;8.616;2023-03-05T03:51:50;27.80;;;18.10;;
7719;SDS011;3902;49.474;8.616;2023-03-05T03:54:18;28.07;;;17.40;;
7719;SDS011;3902;49.474;8.616;2023-03-05T03:56:44;27.03;;;18.60;;
7719;SDS011;3902;49.474;8.616;2023-03-05T03:59:10;27.77;;;18.77;;
7719;SDS011;3902;49.474;8.616;2023-03-05T04:01:36;28.20;;;18.27;;
7719;SDS011;3902;49.474;8.616;2023-03-05T04:04:02;25.90;;;18.07;;
7719;SDS011;3902;49.474;8.616;2023-03-05T04:06:28;27.37;;;17.83;;
7719;SDS011;3902;49.474;8.616;2023-03-05T04:08:54;24.87;;;16.87;;
7719;SDS011;3902;49.474;8.616;2023-03-05T04:11:19;27.60;;;18.13;;
7719;SDS011;3902;49.474;8.616;2023-03-05T04:13:45;27.17;;;18.10;;
7719;SDS011;3902;49.474;8.616;2023-03-05T04:16:11;26.90;;;17.67;;
7719;SDS011;3902;49.474;8.616;2023-03-05T04:18:38;27.17;;;18.13;;
7719;SDS011;3902;49.474;8.616;2023-03-05T04:21:03;25.47;;;17.70;;
7719;SDS011;3902;49.474;8.616;2023-03-05T04:23:29;28.07;;;18.77;;
7719;SDS011;3902;49.474;8.616;2023-03-05T04:25:55;27.60;;;17.60;;
7719;SDS011;3902;49.474;8.616;2023-03-05T04:28:20;27.23;;;17.93;;
7719;SDS011;3902;49.474;8.616;2023-03-05T04:30:46;25.57;;;17.60;;
7719;SDS011;3902;49.474;8.616;2023-03-05T04:33:12;27.50;;;17.90;;
7719;SDS011;3902;49.474;8.616;2023-03-05T04:35:37;28.67;;;18.47;;
7719;SDS011;3902;49.474;8.616;2023-03-05T04:38:03;27.40;;;17.87;;
7719;SDS011;3902;49.474;8.616;2023-03-05T04:40:28;27.13;;;17.90;;
7719;SDS011;3902;49.474;8.616;2023-03-05T04:42:54;28.20;;;17.77;;
7719;SDS011;3902;49.474;8.616;2023-03-05T04:45:20;22.80;;;16.37;;
7719;SDS011;3902;49.474;8.616;2023-03-05T04:47:45;30.90;;;19.17;;
7719;SDS011;3902;49.474;8.616;2023-03-05T04:50:11;26.63;;;17.30;;
7719;SDS011;3902;49.474;8.616;2023-03-05T04:52:40;28.27;;;18.23;;
7719;SDS011;3902;49.474;8.616;2023-03-05T04:55:07;27.23;;;18.47;;
7719;SDS011;3902;49.474;8.616;2023-03-05T04:57:33;28.20;;;18.13;;
7719;SDS011;3902;49.474;8.616;2023-03-05T04:59:59;26.47;;;17.40;;
7719;SDS011;3902;49.474;8.616;2023-03-05T05:02:25;27.23;;;18.10;;
7719;SDS011;3902;49.474;8.616;2023-03-05T05:04:51;27.40;;;17.17;;
7719;SDS011;3902;49.474;8.616;2023-03-05T05:07:17;26.73;;;17.70;;
7719;SDS011;3902;49.474;8.616;2023-03-05T05:09:43;29.30;;;18.20;;
7719;SDS011;3902;49.474;8.616;2023-03-05T05:12:08;29.93;;;18.50;;
7719;SDS011;3902;49.474;8.616;2023-03-05T05:14:34;26.70;;;17.93;;
7719;SDS011;3902;49.474;8.616;2023-03-05T05:17:00;23.77;;;16.20;;
7719;SDS011;3902;49.474;8.616;2023-03-05T05:19:29;26.87;;;17.60;;
7719;SDS011;3902;49.474;8.616;2023-03-05T05:21:55;25.67;;;16.97;;
7719;SDS011;3902;49.474;8.616;2023-03-05T05:24:21;26.20;;;16.23;;
7719;SDS011;3902;49.474;8.616;2023-03-05T05:26:46;25.73;;;16.60;;
7719;SDS011;3902;49.474;8.616;2023-03-05T05:29:12;26.97;;;17.73;;
7719;SDS011;3902;49.474;8.616;2023-03-05T05:31:37;27.90;;;17.70;;
7719;SDS011;3902;49.474;8.616;2023-03-05T05:34:03;27.30;;;18.27;;
7719;SDS011;3902;49.474;8.616;2023-03-05T05:36:28;23.43;;;16.30;;
7719;SDS011;3902;49.474;8.616;2023-03-05T05:38:54;27.90;;;16.70;;
7719;SDS011;3902;49.474;8.616;2023-03-05T05:41:19;25.47;;;17.23;;
7719;SDS011;3902;49.474;8.616;2023-03-05T05:43:45;25.60;;;16.60;;
7719;SDS011;3902;49.474;8.616;2023-03-05T05:46:12;25.37;;;17.00;;
7719;SDS011;3902;49.474;8.616;2023-03-05T05:48:40;25.77;;;16.60;;
7719;SDS011;3902;49.474;8.616;2023-03-05T05:51:07;27.10;;;17.70;;
7719;SDS011;3902;49.474;8.616;2023-03-05T05:53:44;25.70;;;16.60;;
7719;SDS011;3902;49.474;8.616;2023-03-05T05:56:11;24.27;;;16.70;;
7719;SDS011;3902;49.474;8.616;2023-03-05T05:58:38;25.80;;;18.03;;
7719;SDS011;3902;49.474;8.616;2023-03-05T06:01:11;26.43;;;16.33;;
7719;SDS011;3902;49.474;8.616;2023-03-05T06:03:42;25.00;;;15.90;;
7719;SDS011;3902;49.474;8.616;2023-03-05T06:06:09;26.30;;;17.13;;
7719;SDS011;3902;49.474;8.616;2023-03-05T06:08:36;27.17;;;17.57;;
7719;SDS011;3902;49.474;8.616;2023-03-05T06:11:01;24.47;;;15.33;;
7719;SDS011;3902;49.474;8.616;2023-03-05T06:13:27;27.37;;;17.10;;
7719;SDS011;3902;49.474;8.616;2023-03-05T06:15:56;26.23;;;16.53;;
7719;SDS011;3902;49.474;8.616;2023-03-05T06:18:22;25.93;;;18.00;;
7719;SDS011;3902;49.474;8.616;2023-03-05T06:20:58;29.00;;;15.87;;
7719;SDS011;3902;49.474;8.616;2023-03-05T06:23:26;25.87;;;17.27;;
7719;SDS011;3902;49.474;8.616;2023-03-05T06:25:52;27.97;;;16.87;;
7719;SDS011;3902;49.474;8.616;2023-03-05T06:28:18;23.73;;;15.37;;
7719;SDS011;3902;49.474;8.616;2023-03-05T06:30:44;25.53;;;16.30;;
7719;SDS011;3902;49.474;8.616;2023-03-05T06:33:10;27.67;;;16.93;;
7719;SDS011;3902;49.474;8.616;2023-03-05T06:35:38;26.83;;;17.33;;
7719;SDS011;3902;49.474;8.616;2023-03-05T06:38:04;24.00;;;15.60;;
7719;SDS011;3902;49.474;8.616;2023-03-05T06:40:31;26.23;;;16.93;;
7719;SDS011;3902;49.474;8.616;2023-03-05T06:42:56;25.87;;;17.07;;
7719;SDS011;3902;49.474;8.616;2023-03-05T06:45:22;24.10;;;16.67;;
7719;SDS011;3902;49.474;8.616;2023-03-05T06:47:47;25.77;;;15.73;;
7719;SDS011;3902;49.474;8.616;2023-03-05T06:50:13;29.73;;;15.60;;
7719;SDS011;3902;49.474;8.616;2023-03-05T06:52:39;25.63;;;17.03;;
7719;SDS011;3902;49.474;8.616;2023-03-05T06:55:05;25.07;;;16.60;;
7719;SDS011;3902;49.474;8.616;2023-03-05T06:57:32;25.17;;;16.70;;
7719;SDS011;3902;49.474;8.616;2023-03-05T06:59:58;26.43;;;16.03;;
7719;SDS011;3902;49.474;8.616;2023-03-05T07:02:23;25.20;;;17.10;;
7719;SDS011;3902;49.474;8.616;2023-03-05T07:04:49;25.73;;;16.90;;
7719;SDS011;3902;49.474;8.616;2023-03-05T07:07:14;27.23;;;17.13;;
7719;SDS011;3902;49.474;8.616;2023-03-05T07:09:40;22.27;;;15.23;;
7719;SDS011;3902;49.474;8.616;2023-03-05T07:12:10;26.87;;;16.17;;
7719;SDS011;3902;49.474;8.616;2023-03-05T07:14:37;25.43;;;16.90;;
7719;SDS011;3902;49.474;8.616;2023-03-05T07:17:04;23.53;;;15.80;;
7719;SDS011;3902;49.474;8.616;2023-03-05T07:19:30;25.43;;;16.77;;
7719;SDS011;3902;49.474;8.616;2023-03-05T07:21:56;25.83;;;17.00;;
7719;SDS011;3902;49.474;8.616;2023-03-05T07:24:21;26.27;;;16.50;;
7719;SDS011;3902;49.474;8.616;2023-03-05T07:26:51;25.97;;;16.57;;
7719;SDS011;3902;49.474;8.616;2023-03-05T07:29:16;33.13;;;17.63;;
7719;SDS011;3902;49.474;8.616;2023-03-05T07:31:42;25.63;;;16.50;;
7719;SDS011;3902;49.474;8.616;2023-03-05T07:34:08;23.43;;;15.67;;
7719;SDS011;3902;49.474;8.616;2023-03-05T07:36:33;24.20;;;15.10;;
7719;SDS011;3902;49.474;8.616;2023-03-05T07:38:59;24.67;;;16.07;;
7719;SDS011;3902;49.474;8.616;2023-03-05T07:41:25;24.40;;;16.20;;
7719;SDS011;3902;49.474;8.616;2023-03-05T07:43:53;25.83;;;17.60;;
7719;SDS011;3902;49.474;8.616;2023-03-05T07:46:21;24.73;;;15.97;;
7719;SDS011;3902;49.474;8.616;2023-03-05T07:48:48;26.13;;;16.63;;
7719;SDS011;3902;49.474;8.616;2023-03-05T07:51:15;24.83;;;16.63;;
7719;SDS011;3902;49.474;8.616;2023-03-05T07:53:43;25.97;;;16.20;;
7719;SDS011;3902;49.474;8.616;2023-03-05T07:56:09;25.87;;;16.00;;
7719;SDS011;3902;49.474;8.616;2023-03-05T07:58:35;23.37;;;16.10;;
7719;SDS011;3902;49.474;8.616;2023-03-05T08:01:01;24.70;;;15.80;;
7719;SDS011;3902;49.474;8.616;2023-03-05T08:03:27;23.77;;;15.27;;
7719;SDS011;3902;49.474;8.616;2023-03-05T08:05:52;22.30;;;15.80;;
7719;SDS011;3902;49.474;8.616;2023-03-05T08:08:18;21.40;;;15.90;;
7719;SDS011;3902;49.474;8.616;2023-03-05T08:10:44;18.83;;;14.07;;
7719;SDS011;3902;49.474;8.616;2023-03-05T08:13:10;19.40;;;13.57;;
7719;SDS011;3902;49.474;8.616;2023-03-05T08:15:35;17.23;;;12.87;;
7719;SDS011;3902;49.474;8.616;2023-03-05T08:18:02;16.73;;;12.70;;
7719;SDS011;3902;49.474;8.616;2023-03-05T08:20:27;17.80;;;12.53;;
7719;SDS011;3902;49.474;8.616;2023-03-05T08:22:53;16.93;;;12.70;;
7719;SDS011;3902;49.474;8.616;2023-03-05T08:25:19;16.60;;;12.00;;
7719;SDS011;3902;49.474;8.616;2023-03-05T08:27:45;16.40;;;11.60;;
7719;SDS011;3902;49.474;8.616;2023-03-05T08:30:12;17.27;;;10.80;;
7719;SDS011;3902;49.474;8.616;2023-03-05T08:32:40;12.70;;;9.87;;
7719;SDS011;3902;49.474;8.616;2023-03-05T08:35:05;13.23;;;9.83;;
7719;SDS011;3902;49.474;8.616;2023-03-05T08:37:31;12.40;;;9.53;;
7719;SDS011;3902;49.474;8.616;2023-03-05T08:39:57;11.93;;;9.70;;
7719;SDS011;3902;49.474;8.616;2023-03-05T08:42:23;13.90;;;9.60;;
7719;SDS011;3902;49.474;8.616;2023-03-05T08:44:49;14.73;;;10.27;;
7719;SDS011;3902;49.474;8.616;2023-03-05T08:47:14;12.47;;;9.50;;
7719;SDS011;3902;49.474;8.616;2023-03-05T08:49:40;12.07;;;9.87;;
7719;SDS011;3902;49.474;8.616;2023-03-05T08:52:06;13.37;;;10.20;;
7719;SDS011;3902;49.474;8.616;2023-03-05T08:54:32;10.53;;;9.43;;
7719;SDS011;3902;49.474;8.616;2023-03-05T08:56:58;11.70;;;10.17;;
7719;SDS011;3902;49.474;8.616;2023-03-05T08:59:23;13.20;;;9.33;;
7719;SDS011;3902;49.474;8.616;2023-03-05T09:01:49;11.17;;;8.70;;
7719;SDS011;3902;49.474;8.616;2023-03-05T09:04:14;13.50;;;9.57;;
7719;SDS011;3902;49.474;8.616;2023-03-05T09:06:40;11.00;;;8.80;;
7719;SDS011;3902;49.474;8.616;2023-03-05T09:09:06;11.07;;;9.47;;
7719;SDS011;3902;49.474;8.616;2023-03-05T09:11:33;13.50;;;9.10;;
7719;SDS011;3902;49.474;8.616;2023-03-05T09:14:01;11.00;;;8.20;;
7719;SDS011;3902;49.474;8.616;2023-03-05T09:16:29;10.53;;;8.63;;
7719;SDS011;3902;49.474;8.616;2023-03-05T09:18:55;11.90;;;8.93;;
7719;SDS011;3902;49.474;8.616;2023-03-05T09:21:21;9.20;;;8.17;;
7719;SDS011;3902;49.474;8.616;2023-03-05T09:23:46;10.57;;;9.20;;
7719;SDS011;3902;49.474;8.616;2023-03-05T09:26:12;12.70;;;8.17;;
7719;SDS011;3902;49.474;8.616;2023-03-05T09:28:39;12.20;;;7.73;;
7719;SDS011;3902;49.474;8.616;2023-03-05T09:31:05;11.30;;;8.43;;
7719;SDS011;3902;49.474;8.616;2023-03-05T09:33:32;9.70;;;7.90;;
7719;SDS011;3902;49.474;8.616;2023-03-05T09:35:59;10.03;;;8.07;;
7719;SDS011;3902;49.474;8.616;2023-03-05T09:38:26;8.47;;;7.13;;
7719;SDS011;3902;49.474;8.616;2023-03-05T09:40:54;9.43;;;7.53;;
7719;SDS011;3902;49.474;8.616;2023-03-05T09:51:24;8.37;;;6.10;;
7719;SDS011;3902;49.474;8.616;2023-03-05T09:56:33;9.60;;;5.83;;
7719;SDS011;3902;49.474;8.616;2023-03-05T09:59:12;8.30;;;6.23;;
7719;SDS011;3902;49.474;8.616;2023-03-05T10:01:55;7.97;;;6.10;;
7719;SDS011;3902;49.474;8.616;2023-03-05T10:04:41;6.57;;;5.90;;
7719;SDS011;3902;49.474;8.616;2023-03-05T10:07:14;8.13;;;6.70;;
7719;SDS011;3902;49.474;8.616;2023-03-05T10:15:15;9.17;;;6.20;;
7719;SDS011;3902;49.474;8.616;2023-03-05T10:18:07;8.27;;;6.47;;
7719;SDS011;3902;49.474;8.616;2023-03-05T10:20:57;6.40;;;5.00;;
7719;SDS011;3902;49.474;8.616;2023-03-05T10:25:55;7.70;;;5.70;;
7719;SDS011;3902;49.474;8.616;2023-03-05T10:36:37;6.87;;;5.03;;
7719;SDS011;3902;49.474;8.616;2023-03-05T10:42:24;8.27;;;5.93;;
7719;SDS011;3902;49.474;8.616;2023-03-05T10:44:58;9.23;;;6.07;;
7719;SDS011;3902;49.474;8.616;2023-03-05T10:47:41;8.63;;;6.10;;
7719;SDS011;3902;49.474;8.616;2023-03-05T10:50:34;8.00;;;6.13;;
7719;SDS011;3902;49.474;8.616;2023-03-05T10:53:06;6.50;;;5.20;;
7719;SDS011;3902;49.474;8.616;2023-03-05T10:55:51;7.20;;;5.47;;
7719;SDS011;3902;49.474;8.616;2023-03-05T10:58:20;6.77;;;5.33;;
7719;SDS011;3902;49.474;8.616;2023-03-05T11:03:51;6.67;;;4.97;;
7719;SDS011;3902;49.474;8.616;2023-03-05T11:06:25;6.27;;;5.10;;
7719;SDS011;3902;49.474;8.616;2023-03-05T11:08:51;7.33;;;4.97;;
7719;SDS011;3902;49.474;8.616;2023-03-05T11:11:18;8.03;;;5.43;;
7719;SDS011;3902;49.474;8.616;2023-03-05T11:16:22;9.10;;;5.63;;
7719;SDS011;3902;49.474;8.616;2023-03-05T11:19:15;5.30;;;4.13;;
7719;SDS011;3902;49.474;8.616;2023-03-05T11:21:42;6.50;;;5.30;;
7719;SDS011;3902;49.474;8.616;2023-03-05T11:24:11;7.00;;;4.23;;
7719;SDS011;3902;49.474;8.616;2023-03-05T11:26:48;6.50;;;5.20;;
7719;SDS011;3902;49.474;8.616;2023-03-05T11:29:18;6.83;;;4.90;;
7719;SDS011;3902;49.474;8.616;2023-03-05T11:31:49;7.40;;;5.13;;
7719;SDS011;3902;49.474;8.616;2023-03-05T11:36:41;7.43;;;5.10;;
7719;SDS011;3902;49.474;8.616;2023-03-05T11:39:25;6.20;;;4.17;;
7719;SDS011;3902;49.474;8.616;2023-03-05T11:42:06;7.27;;;5.07;;
7719;SDS011;3902;49.474;8.616;2023-03-05T11:50:02;5.50;;;4.50;;
7719;SDS011;3902;49.474;8.616;2023-03-05T11:52:41;7.70;;;5.17;;
7719;SDS011;3902;49.474;8.616;2023-03-05T11:55:27;5.17;;;4.40;;
7719;SDS011;3902;49.474;8.616;2023-03-05T12:01:26;6.60;;;4.67;;
7719;SDS011;3902;49.474;8.616;2023-03-05T12:03:55;7.37;;;4.87;;
7719;SDS011;3902;49.474;8.616;2023-03-05T12:06:38;7.23;;;4.60;;
7719;SDS011;3902;49.474;8.616;2023-03-05T12:09:53;6.50;;;4.87;;
7719;SDS011;3902;49.474;8.616;2023-03-05T12:15:02;6.20;;;4.57;;
7719;SDS011;3902;49.474;8.616;2023-03-05T12:17:34;5.43;;;4.40;;
7719;SDS011;3902;49.474;8.616;2023-03-05T12:20:13;6.07;;;4.93;;
7719;SDS011;3902;49.474;8.616;2023-03-05T12:22:47;7.03;;;4.70;;
7719;SDS011;3902;49.474;8.616;2023-03-05T12:27:56;10.23;;;5.03;;
7719;SDS011;3902;49.474;8.616;2023-03-05T12:33:00;6.70;;;4.50;;
7719;SDS011;3902;49.474;8.616;2023-03-05T12:38:17;5.93;;;4.60;;
7719;SDS011;3902;49.474;8.616;2023-03-05T12:41:04;7.27;;;5.03;;
7719;SDS011;3902;49.474;8.616;2023-03-05T12:46:28;6.47;;;4.90;;
7719;SDS011;3902;49.474;8.616;2023-03-05T12:48:53;6.80;;;4.73;;
7719;SDS011;3902;49.474;8.616;2023-03-05T12:51:30;6.30;;;5.40;;
7719;SDS011;3902;49.474;8.616;2023-03-05T12:56:49;6.70;;;5.37;;
7719;SDS011;3902;49.474;8.616;2023-03-05T12:59:18;7.77;;;4.97;;
7719;SDS011;3902;49.474;8.616;2023-03-05T13:01:49;7.63;;;5.20;;
7719;SDS011;3902;49.474;8.616;2023-03-05T13:04:24;6.13;;;4.57;;
7719;SDS011;3902;49.474;8.616;2023-03-05T13:09:29;8.23;;;5.63;;
7719;SDS011;3902;49.474;8.616;2023-03-05T13:11:59;8.53;;;6.07;;
7719;SDS011;3902;49.474;8.616;2023-03-05T13:17:27;10.10;;;5.70;;
7719;SDS011;3902;49.474;8.616;2023-03-05T13:19:58;8.43;;;6.30;;
7719;SDS011;3902;49.474;8.616;2023-03-05T13:22:25;8.30;;;5.50;;
7719;SDS011;3902;49.474;8.616;2023-03-05T13:25:25;10.23;;;6.20;;
7719;SDS011;3902;49.474;8.616;2023-03-05T13:27:45;7.67;;;5.30;;
7719;SDS011;3902;49.474;8.616;2023-03-05T13:30:21;8.13;;;5.47;;
7719;SDS011;3902;49.474;8.616;2023-03-05T13:32:49;6.70;;;4.90;;
7719;SDS011;3902;49.474;8.616;2023-03-05T13:35:16;8.03;;;5.60;;
7719;SDS011;3902;49.474;8.616;2023-03-05T13:37:42;5.83;;;4.47;;
7719;SDS011;3902;49.474;8.616;2023-03-05T13:42:43;7.20;;;4.73;;
7719;SDS011;3902;49.474;8.616;2023-03-05T13:45:27;5.27;;;4.37;;
7719;SDS011;3902;49.474;8.616;2023-03-05T13:48:02;5.17;;;4.10;;
7719;SDS011;3902;49.474;8.616;2023-03-05T13:53:19;4.90;;;3.70;;
7719;SDS011;3902;49.474;8.616;2023-03-05T13:55:46;6.30;;;4.27;;
7719;SDS011;3902;49.474;8.616;2023-03-05T13:58:39;4.50;;;3.67;;
7719;SDS011;3902;49.474;8.616;2023-03-05T14:04:18;6.23;;;4.57;;
7719;SDS011;3902;49.474;8.616;2023-03-05T14:06:45;4.70;;;3.87;;
7719;SDS011;3902;49.474;8.616;2023-03-05T14:14:54;5.47;;;4.40;;
7719;SDS011;3902;49.474;8.616;2023-03-05T14:17:38;4.77;;;3.53;;
7719;SDS011;3902;49.474;8.616;2023-03-05T14:22:38;6.20;;;4.53;;
7719;SDS011;3902;49.474;8.616;2023-03-05T14:25:23;3.93;;;3.30;;
7719;SDS011;3902;49.474;8.616;2023-03-05T14:30:44;4.80;;;3.60;;
7719;SDS011;3902;49.474;8.616;2023-03-05T14:33:20;4.43;;;3.43;;
7719;SDS011;3902;49.474;8.616;2023-03-05T14:35:54;4.47;;;3.40;;
7719;SDS011;3902;49.474;8.616;2023-03-05T14:38:25;5.40;;;4.30;;
7719;SDS011;3902;49.474;8.616;2023-03-05T14:40:54;6.10;;;3.87;;
7719;SDS011;3902;49.474;8.616;2023-03-05T14:43:19;5.13;;;3.90;;
7719;SDS011;3902;49.474;8.616;2023-03-05T14:45:45;4.97;;;3.80;;
7719;SDS011;3902;49.474;8.616;2023-03-05T14:48:12;4.67;;;3.77;;
7719;SDS011;3902;49.474;8.616;2023-03-05T14:53:14;4.80;;;3.97;;
7719;SDS011;3902;49.474;8.616;2023-03-05T14:55:41;4.30;;;3.53;;
7719;SDS011;3902;49.474;8.616;2023-03-05T14:58:21;5.07;;;4.10;;
7719;SDS011;3902;49.474;8.616;2023-03-05T15:00:49;5.03;;;4.03;;
7719;SDS011;3902;49.474;8.616;2023-03-05T15:03:16;5.97;;;4.10;;
7719;SDS011;3902;49.474;8.616;2023-03-05T15:05:42;5.90;;;3.83;;
7719;SDS011;3902;49.474;8.616;2023-03-05T15:08:12;6.37;;;4.40;;
7719;SDS011;3902;49.474;8.616;2023-03-05T15:10:41;5.37;;;4.30;;
7719;SDS011;3902;49.474;8.616;2023-03-05T15:13:06;5.40;;;4.00;;
7719;SDS011;3902;49.474;8.616;2023-03-05T15:15:32;5.00;;;3.90;;
7719;SDS011;3902;49.474;8.616;2023-03-05T15:17:58;6.50;;;4.70;;
7719;SDS011;3902;49.474;8.616;2023-03-05T15:20:25;4.90;;;4.20;;
7719;SDS011;3902;49.474;8.616;2023-03-05T15:22:52;4.87;;;4.03;;
7719;SDS011;3902;49.474;8.616;2023-03-05T15:25:18;5.37;;;3.93;;
7719;SDS011;3902;49.474;8.616;2023-03-05T15:27:45;6.93;;;5.07;;
7719;SDS011;3902;49.474;8.616;2023-03-05T15:32:46;5.90;;;4.60;;
7719;SDS011;3902;49.474;8.616;2023-03-05T15:35:11;5.53;;;4.40;;
7719;SDS011;3902;49.474;8.616;2023-03-05T15:37:37;7.13;;;4.90;;
7719;SDS011;3902;49.474;8.616;2023-03-05T15:40:03;6.50;;;4.53;;
7719;SDS011;3902;49.474;8.616;2023-03-05T15:42:29;5.67;;;4.80;;
7719;SDS011;3902;49.474;8.616;2023-03-05T15:44:54;5.17;;;4.67;;
7719;SDS011;3902;49.474;8.616;2023-03-05T15:47:20;6.40;;;4.73;;
7719;SDS011;3902;49.474;8.616;2023-03-05T15:49:45;5.60;;;4.60;;
7719;SDS011;3902;49.474;8.616;2023-03-05T15:52:11;6.63;;;5.03;;
7719;SDS011;3902;49.474;8.616;2023-03-05T15:54:36;6.57;;;5.10;;
7719;SDS011;3902;49.474;8.616;2023-03-05T15:57:03;7.17;;;5.10;;
7719;SDS011;3902;49.474;8.616;2023-03-05T15:59:31;5.10;;;4.20;;
7719;SDS011;3902;49.474;8.616;2023-03-05T16:01:57;5.70;;;4.60;;
7719;SDS011;3902;49.474;8.616;2023-03-05T16:04:23;7.50;;;5.43;;
7719;SDS011;3902;49.474;8.616;2023-03-05T16:06:48;6.80;;;4.53;;
7719;SDS011;3902;49.474;8.616;2023-03-05T16:09:14;6.20;;;4.60;;
7719;SDS011;3902;49.474;8.616;2023-03-05T16:11:41;6.60;;;4.60;;
7719;SDS011;3902;49.474;8.616;2023-03-05T16:14:11;7.30;;;4.30;;
7719;SDS011;3902;49.474;8.616;2023-03-05T16:16:40;6.30;;;4.43;;
7719;SDS011;3902;49.474;8.616;2023-03-05T16:19:06;5.67;;;4.80;;
7719;SDS011;3902;49.474;8.616;2023-03-05T16:21:34;6.70;;;4.80;;
7719;SDS011;3902;49.474;8.616;2023-03-05T16:23:59;5.13;;;4.27;;
7719;SDS011;3902;49.474;8.616;2023-03-05T16:26:25;7.23;;;5.13;;
7719;SDS011;3902;49.474;8.616;2023-03-05T16:28:51;7.20;;;5.20;;
7719;SDS011;3902;49.474;8.616;2023-03-05T16:31:16;6.20;;;4.77;;
7719;SDS011;3902;49.474;8.616;2023-03-05T16:33:42;6.40;;;5.00;;
7719;SDS011;3902;49.474;8.616;2023-03-05T16:38:49;5.40;;;4.50;;
7719;SDS011;3902;49.474;8.616;2023-03-05T16:41:17;5.23;;;4.53;;
7719;SDS011;3902;49.474;8.616;2023-03-05T16:43:44;6.67;;;4.50;;
7719;SDS011;3902;49.474;8.616;2023-03-05T16:46:11;6.53;;;4.77;;